Time;durP1;ratioP1;P1;durP2;ratioP2;P2;SDS_P1;SDS_P2;PMS_P1;PMS_P2;Temp;Humidity;BMP_temperature;BMP_pressure;BME280_temperature;BME280_humidity;BME280_pressure;Samples;Min_cycle;Max_cycle;Signal;HPM_P1;HPM_P2
2023/01/09 00:00:44;;;;;;;45.17;21.38;;;;;;;8.07;100.00;99338.94;5055779;28;20034;-82
2023/01/09 00:09:55;;;;;;;44.15;21.02;;;;;;;8.28;100.00;99407.44;5037107;28;20068;-81
2023/01/09 00:19:06;;;;;;;52.67;22.10;;;;;;;7.82;100.00;99330.91;5036756;28;20049;-81
2023/01/09 00:21:33;;;;;;;44.40;21.05;;;;;;;8.76;100.00;99468.50;5035850;28;20041;-82
2023/01/09 00:23:59;;;;;;;46.35;20.90;;;;;;;8.85;100.00;99483.28;5035636;28;20026;-82
2023/01/09 00:27:04;;;;;;;60.50;22.48;;;;;;;8.81;100.00;99475.91;5034409;28;20017;-81
2023/01/09 00:33:11;;;;;;;41.65;20.05;;;;;;;8.88;100.00;99473.97;5036408;28;20041;-81
2023/01/09 00:35:40;;;;;;;46.92;19.98;;;;;;;7.33;100.00;99241.47;5035386;28;20025;-82
2023/01/09 00:38:44;;;;;;;50.42;19.33;;;;;;;8.90;100.00;99475.38;5036827;28;20018;-82
2023/01/09 00:41:48;;;;;;;49.88;20.58;;;;;;;8.90;100.00;99467.31;5035809;28;20045;-82
2023/01/09 00:44:40;;;;;;;52.47;21.25;;;;;;;8.90;100.00;99466.50;5036549;28;20049;-82
2023/01/09 00:47:13;;;;;;;48.08;21.85;;;;;;;8.80;100.00;99456.28;5035834;28;20014;-81
2023/01/09 00:49:40;;;;;;;58.33;23.48;;;;;;;7.28;100.00;99222.56;5035842;28;20029;-82
2023/01/09 00:52:45;;;;;;;62.47;23.52;;;;;;;8.95;100.00;99469.38;5035855;28;20033;-80
2023/01/09 01:01:55;;;;;;;49.20;22.30;;;;;;;8.14;100.00;99352.28;5044354;28;20125;-81
2023/01/09 01:13:13;;;;;;;47.90;21.88;;;;;;;7.73;100.00;99278.66;5059175;28;20055;-82
2023/01/09 01:15:45;;;;;;;54.38;22.05;;;;;;;7.37;100.00;99201.72;5042006;28;20036;-81
2023/01/09 01:18:12;;;;;;;49.05;22.17;;;;;;;7.23;100.00;99219.72;5041928;28;20032;-81
2023/01/09 01:20:43;;;;;;;53.42;23.60;;;;;;;7.32;100.00;99212.25;5101975;23;20049;-83
2023/01/09 01:23:39;;;;;;;57.00;23.75;;;;;;;8.98;100.00;99468.91;5038011;28;20061;-82
2023/01/09 01:32:51;;;;;;;42.50;18.75;;;;;;;8.71;100.00;99479.06;5036932;28;20068;-81
2023/01/09 01:38:57;;;;;;;53.83;19.20;;;;;;;8.58;100.00;99447.81;5036595;28;20089;-81
2023/01/09 01:42:01;;;;;;;54.60;20.80;;;;;;;8.64;100.00;99456.84;5037779;28;20146;-81
2023/01/09 01:48:14;;;;;;;52.00;21.20;;;;;;;8.65;100.00;99447.78;5038653;28;20031;-81
2023/01/09 01:50:50;;;;;;;59.70;22.33;;;;;;;8.70;100.00;99446.06;5037619;28;20032;-81
2023/01/09 01:53:59;;;;;;;54.50;22.45;;;;;;;8.68;100.00;99445.47;5037369;28;20052;-82
2023/01/09 01:57:04;;;;;;;56.95;21.45;;;;;;;8.60;100.00;99439.56;5037958;28;20044;-82
2023/01/09 02:00:11;;;;;;;59.92;22.63;;;;;;;8.67;100.00;99441.13;5038006;28;20045;-82
2023/01/09 02:02:42;;;;;;;57.15;22.90;;;;;;;7.15;100.00;99217.28;5144125;23;20275;-82
2023/01/09 02:05:12;;;;;;;66.93;23.33;;;;;;;7.08;100.00;99182.56;5038292;28;20107;-81
2023/01/09 02:57:11;;;;;;;40.72;18.95;;;;;;;8.70;100.00;99426.47;5006182;28;20556;-80
2023/01/09 03:00:15;;;;;;;41.15;19.90;;;;;;;8.74;100.00;99430.38;5004575;28;20034;-80
2023/01/09 03:02:50;;;;;;;45.40;18.80;;;;;;;8.78;100.00;99428.88;4983806;28;20044;-80
2023/01/09 03:05:30;;;;;;;48.13;19.85;;;;;;;8.46;100.00;99383.38;4986388;28;20512;-80
2023/01/09 03:08:18;;;;;;;48.90;20.02;;;;;;;8.86;100.00;99420.53;4986099;28;20037;-80
2023/01/09 03:11:03;;;;;;;40.67;18.85;;;;;;;7.78;100.00;99254.69;4985195;28;20026;-80
2023/01/09 03:13:53;;;;;;;47.25;19.40;;;;;;;7.76;100.00;99248.78;4986380;28;20026;-80
2023/01/09 03:16:35;;;;;;;39.58;18.38;;;;;;;8.27;100.00;99317.34;4985165;28;20034;-80
2023/01/09 03:19:11;;;;;;;42.25;18.75;;;;;;;7.43;100.00;99199.00;4985082;28;20040;-80
2023/01/09 03:21:39;;;;;;;41.78;19.55;;;;;;;8.43;100.00;99322.16;5004093;28;20022;-80
2023/01/09 03:24:06;;;;;;;38.35;18.73;;;;;;;7.82;100.00;99236.38;4970927;28;20038;-80
2023/01/09 03:26:32;;;;;;;38.63;18.00;;;;;;;7.25;100.00;99148.94;4987605;28;20061;-80
2023/01/09 03:29:01;;;;;;;40.20;18.13;;;;;;;8.41;100.00;99315.38;5005365;28;20022;-80
2023/01/09 03:31:27;;;;;;;36.03;17.67;;;;;;;7.41;100.00;99179.66;5004754;28;20042;-80
2023/01/09 03:33:53;;;;;;;35.28;17.40;;;;;;;7.47;100.00;99172.63;4989105;28;20500;-80
2023/01/09 03:36:21;;;;;;;34.17;17.30;;;;;;;7.46;100.00;99158.41;5002218;28;20535;-80
2023/01/09 03:38:47;;;;;;;40.00;17.48;;;;;;;8.97;100.00;99415.47;4988066;28;20049;-80
2023/01/09 03:41:14;;;;;;;36.70;17.50;;;;;;;7.45;100.00;99169.31;4987972;28;20022;-80
2023/01/09 03:43:42;;;;;;;35.20;17.45;;;;;;;7.11;100.00;99114.47;4988921;28;20079;-80
2023/01/09 03:46:07;;;;;;;44.88;18.90;;;;;;;7.54;100.00;99179.53;4987935;28;20041;-80
2023/01/09 03:48:51;;;;;;;36.50;17.15;;;;;;;9.04;100.00;99408.16;5005410;28;20472;-80
2023/01/09 03:51:19;;;;;;;38.67;19.35;;;;;;;7.82;100.00;99207.72;4987785;28;20027;-81
2023/01/09 03:53:47;;;;;;;39.35;17.85;;;;;;;7.63;100.00;99198.00;5008560;28;20042;-81
2023/01/09 03:56:38;;;;;;;33.95;17.42;;;;;;;9.00;100.00;99404.28;5013658;28;20050;-81
2023/01/09 03:59:04;;;;;;;36.25;17.92;;;;;;;7.39;100.00;99154.97;5026176;28;20510;-82
2023/01/09 04:01:34;;;;;;;42.78;18.42;;;;;;;7.35;100.00;99120.84;5024387;28;20056;-81
2023/01/09 04:04:13;;;;;;;38.25;18.17;;;;;;;7.48;100.00;99164.38;5031197;28;20082;-81
2023/01/09 04:06:47;;;;;;;34.90;17.90;;;;;;;7.64;100.00;99181.72;5029990;28;20118;-81
2023/01/09 04:09:34;;;;;;;40.00;18.50;;;;;;;9.13;100.00;99404.16;5029754;28;20060;-80
2023/01/09 04:11:59;;;;;;;35.65;17.95;;;;;;;8.46;100.00;99292.22;5030251;28;20018;-81
2023/01/09 04:14:25;;;;;;;31.10;16.52;;;;;;;7.22;100.00;99124.47;5013319;28;20543;-80
2023/01/09 04:17:15;;;;;;;39.38;18.13;;;;;;;7.52;100.00;99160.22;5026873;28;20034;-81
2023/01/09 04:19:42;;;;;;;30.85;17.15;;;;;;;7.44;100.00;99141.75;5027996;28;20033;-81
2023/01/09 04:22:08;;;;;;;35.97;17.25;;;;;;;8.27;100.00;99295.88;5030293;28;20018;-81
2023/01/09 04:24:39;;;;;;;31.75;17.40;;;;;;;8.11;100.00;99241.03;5028190;28;20157;-81
2023/01/09 04:27:05;;;;;;;36.15;17.65;;;;;;;7.62;100.00;99178.47;5008148;28;20032;-80
2023/01/09 04:51:23;;;;;;;28.27;15.90;;;;;;;7.61;100.00;99139.31;5055921;22;20116;-81
2023/01/09 05:00:34;;;;;;;28.20;13.13;;;;;;;7.44;100.00;99152.44;5039939;28;20048;-80
2023/01/09 05:03:01;;;;;;;21.73;13.15;;;;;;;8.97;100.00;99365.31;5022137;28;20053;-82
2023/01/09 05:05:29;;;;;;;21.67;11.93;;;;;;;7.25;100.00;99130.19;5039781;28;20026;-82
2023/01/09 05:08:14;;;;;;;25.27;12.25;;;;;;;9.13;100.00;99372.75;5023405;28;20025;-82
2023/01/09 05:14:04;;;;;;;16.98;10.77;;;;;;;8.46;100.00;99305.63;5040677;28;20036;-82
2023/01/09 05:16:31;;;;;;;19.27;11.07;;;;;;;8.57;100.00;99277.25;5007039;28;20033;-83
2023/01/09 05:22:20;;;;;;;23.70;10.57;;;;;;;7.97;100.00;99197.47;5151456;22;20192;-81
2023/01/09 05:25:01;;;;;;;13.88;9.93;;;;;;;7.69;100.00;99144.41;5025907;28;20045;-82
2023/01/09 05:27:26;;;;;;;15.85;10.60;;;;;;;7.72;100.00;99165.38;5024380;28;20373;-81
2023/01/09 05:29:52;;;;;;;16.08;10.55;;;;;;;8.01;100.00;99195.16;5018140;28;20113;-81
2023/01/09 05:32:17;;;;;;;20.27;11.10;;;;;;;8.46;100.00;99248.53;5001328;28;20041;-81
2023/01/09 05:34:43;;;;;;;17.35;10.40;;;;;;;7.42;100.00;99117.09;5017201;28;20555;-81
2023/01/09 05:37:09;;;;;;;17.85;9.98;;;;;;;7.80;100.00;99193.72;5022534;28;20021;-81
2023/01/09 05:39:36;;;;;;;16.45;11.48;;;;;;;8.13;100.00;99224.72;5023827;28;20512;-82
2023/01/09 05:42:03;;;;;;;15.73;10.40;;;;;;;7.64;100.00;99133.53;5022065;28;20049;-82
2023/01/09 05:44:35;;;;;;;17.25;10.77;;;;;;;8.37;100.00;99247.16;5019783;28;20034;-83
2023/01/09 05:47:19;;;;;;;16.55;10.73;;;;;;;9.12;100.00;99365.75;5021880;28;20025;-82
2023/01/09 05:49:46;;;;;;;18.00;10.82;;;;;;;8.06;100.00;99211.41;5021690;28;20030;-82
2023/01/09 05:52:12;;;;;;;21.30;11.68;;;;;;;9.23;100.00;99380.28;5020927;28;20452;-82
2023/01/09 05:54:38;;;;;;;19.80;11.15;;;;;;;8.12;100.00;99245.34;5019824;28;20092;-82
2023/01/09 05:57:03;;;;;;;18.55;11.35;;;;;;;7.68;100.00;99144.63;5018494;28;20054;-81
2023/01/09 05:59:29;;;;;;;22.33;12.02;;;;;;;8.05;100.00;99198.25;5020874;28;20033;-81
2023/01/09 06:01:55;;;;;;;17.45;11.60;;;;;;;7.92;100.00;99175.91;5024795;28;20018;-81
2023/01/09 06:04:20;;;;;;;19.92;10.80;;;;;;;7.58;100.00;99131.72;5020166;28;20472;-82
2023/01/09 06:06:46;;;;;;;20.13;11.75;;;;;;;8.62;100.00;99281.97;5019066;28;20117;-82
2023/01/09 06:09:11;;;;;;;21.20;12.13;;;;;;;8.90;100.00;99324.34;5020188;28;20033;-81
2023/01/09 06:11:37;;;;;;;16.48;10.80;;;;;;;8.87;100.00;99314.06;5019725;28;20041;-82
2023/01/09 06:14:05;;;;;;;18.52;11.98;;;;;;;8.66;100.00;99278.59;5019402;28;20337;-82
2023/01/09 06:16:31;;;;;;;16.25;11.55;;;;;;;7.71;100.00;99144.19;5020246;28;20084;-82
2023/01/09 06:18:57;;;;;;;19.80;12.02;;;;;;;8.37;100.00;99247.97;5020854;28;20061;-82
2023/01/09 06:21:23;;;;;;;19.10;12.02;;;;;;;7.77;100.00;99140.63;5019323;28;20034;-82
2023/01/09 06:23:49;;;;;;;20.00;12.02;;;;;;;7.74;100.00;99138.38;5021497;28;20018;-82
2023/01/09 06:26:14;;;;;;;19.17;12.05;;;;;;;7.63;100.00;99134.59;5020315;28;20026;-82
2023/01/09 06:28:40;;;;;;;20.73;12.57;;;;;;;8.53;100.00;99248.44;5019212;28;20098;-82
2023/01/09 06:31:06;;;;;;;18.80;12.23;;;;;;;7.71;100.00;99142.31;5019505;28;20030;-81
2023/01/09 06:33:31;;;;;;;19.02;12.90;;;;;;;8.45;100.00;99250.38;5003130;28;20104;-82
2023/01/09 06:35:58;;;;;;;20.45;13.57;;;;;;;7.78;100.00;99123.50;5020957;28;20023;-82
2023/01/09 06:38:24;;;;;;;19.77;13.90;;;;;;;9.07;100.00;99337.97;5019956;28;20030;-82
2023/01/09 06:40:49;;;;;;;21.42;14.38;;;;;;;8.41;100.00;99235.81;5026776;28;20022;-82
2023/01/09 06:43:15;;;;;;;19.23;13.70;;;;;;;7.79;100.00;99132.38;5025831;28;20472;-82
2023/01/09 06:45:42;;;;;;;19.58;14.10;;;;;;;7.95;100.00;99154.03;5024297;28;20022;-81
2023/01/09 06:48:15;;;;;;;17.52;13.60;;;;;;;7.92;100.00;99151.81;5027172;28;20072;-82
2023/01/09 06:50:41;;;;;;;21.98;15.20;;;;;;;9.39;100.00;99368.94;5025723;28;20014;-81
2023/01/09 06:53:07;;;;;;;24.50;15.48;;;;;;;8.68;100.00;99256.94;5018523;28;20488;-81
2023/01/09 06:55:32;;;;;;;21.05;14.60;;;;;;;7.82;100.00;99131.94;5017563;28;20045;-81
2023/01/09 06:57:58;;;;;;;18.95;14.32;;;;;;;8.49;100.00;99233.84;5016055;28;20036;-81
2023/01/09 07:00:24;;;;;;;21.25;14.90;;;;;;;8.37;100.00;99201.59;5018076;28;20032;-81
2023/01/09 07:02:50;;;;;;;20.08;14.48;;;;;;;8.37;100.00;99191.69;5016843;28;20029;-81
2023/01/09 07:05:16;;;;;;;20.83;15.07;;;;;;;9.34;100.00;99347.31;5017354;28;20033;-81
2023/01/09 07:07:42;;;;;;;22.92;14.70;;;;;;;8.44;100.00;99203.19;5017694;28;20026;-81
2023/01/09 07:10:09;;;;;;;17.75;14.27;;;;;;;9.48;100.00;99355.22;5016893;28;20118;-81
2023/01/09 07:12:35;;;;;;;19.30;13.35;;;;;;;8.47;100.00;99205.41;5016716;28;20093;-81
2023/01/09 07:15:02;;;;;;;17.45;13.90;;;;;;;8.83;100.00;99257.34;5002581;28;20042;-80
2023/01/09 07:17:27;;;;;;;20.85;13.55;;;;;;;8.87;100.00;99263.94;5000253;28;20502;-79
2023/01/09 07:19:53;;;;;;;20.48;13.60;;;;;;;9.34;100.00;99341.16;5003491;28;20463;-80
2023/01/09 07:22:20;;;;;;;20.85;14.70;;;;;;;9.38;100.00;99345.81;4988290;28;20050;-81
2023/01/09 07:24:46;;;;;;;21.02;14.88;;;;;;;9.29;100.00;99328.38;4990495;28;20122;-79
2023/01/09 07:27:12;;;;;;;20.15;14.48;;;;;;;9.40;100.00;99343.75;4985800;28;20496;-78
2023/01/09 07:29:56;;;;;;;19.35;14.27;;;;;;;9.45;100.00;99345.72;4997969;28;20041;-79
2023/01/09 07:32:21;;;;;;;19.45;13.75;;;;;;;9.25;100.00;99331.75;4996984;28;20069;-78
2023/01/09 07:34:48;;;;;;;23.13;13.35;;;;;;;9.23;100.00;99310.50;4992353;28;20034;-77
2023/01/09 07:37:13;;;;;;;17.00;13.48;;;;;;;9.46;100.00;99346.53;4975581;28;20591;-82
2023/01/09 07:39:39;;;;;;;22.80;12.93;;;;;;;9.36;100.00;99325.63;4985557;28;20058;-78
2023/01/09 07:42:04;;;;;;;18.38;12.98;;;;;;;9.53;100.00;99353.47;5028114;28;20057;-77
2023/01/09 07:44:39;;;;;;;16.95;12.73;;;;;;;9.42;100.00;99330.06;4970836;28;20111;-77
2023/01/09 07:47:06;;;;;;;21.33;13.63;;;;;;;9.18;100.00;99313.06;5018488;28;20034;-78
2023/01/09 07:49:31;;;;;;;18.90;13.38;;;;;;;8.60;100.00;99215.16;4981354;28;20045;-78
2023/01/09 07:51:57;;;;;;;17.98;14.05;;;;;;;8.99;100.00;99258.59;5000808;28;20034;-77
2023/01/09 07:54:22;;;;;;;20.40;12.68;;;;;;;9.38;100.00;99334.28;5000741;28;20033;-79
2023/01/09 07:56:48;;;;;;;21.10;13.30;;;;;;;9.24;100.00;99304.09;5019816;28;20484;-78
2023/01/09 07:59:13;;;;;;;18.67;12.75;;;;;;;9.50;100.00;99337.81;4985000;28;20488;-78
2023/01/09 08:01:40;;;;;;;16.92;11.82;;;;;;;9.42;100.00;99327.41;4968319;28;20120;-78
2023/01/09 08:04:06;;;;;;;19.10;12.15;;;;;;;9.44;100.00;99333.38;5019697;28;20029;-77
2023/01/09 08:06:31;;;;;;;18.58;12.82;;;;;;;9.29;100.00;99298.88;5019245;28;20504;-78
2023/01/09 08:09:06;;;;;;;21.08;13.38;;;;;;;9.02;100.00;99284.97;4986687;28;20057;-77
2023/01/09 08:11:31;;;;;;;;;;;;;;;9.37;100.00;99333.47;5019138;28;20429;-76
2023/01/09 08:13:57;;;;;;;22.77;12.85;;;;;;;9.32;100.00;99330.63;4998681;28;20055;-78
2023/01/09 08:16:22;;;;;;;16.80;12.20;;;;;;;9.16;100.00;99336.59;5000011;28;20481;-78
2023/01/09 08:18:49;;;;;;;17.50;11.68;;;;;;;9.24;100.00;99338.16;5007779;28;20113;-77
2023/01/09 08:21:14;;;;;;;16.60;11.90;;;;;;;9.23;100.00;99317.75;4984609;28;20048;-77
2023/01/09 08:23:40;;;;;;;15.07;11.68;;;;;;;9.33;100.00;99334.94;4969028;28;20544;-78
2023/01/09 08:26:14;;;;;;;16.88;11.55;;;;;;;9.29;100.00;99344.50;5019032;28;20025;-78
2023/01/09 08:28:39;;;;;;;15.90;10.75;;;;;;;9.23;100.00;99344.56;5013766;28;20080;-77
2023/01/09 08:31:05;;;;;;;16.95;10.88;;;;;;;9.16;100.00;99350.84;4993972;28;20577;-78
2023/01/09 08:33:31;;;;;;;22.98;11.70;;;;;;;9.20;100.00;99351.22;4996960;28;20061;-77
2023/01/09 08:35:57;;;;;;;17.95;11.25;;;;;;;9.09;100.00;99327.81;4995173;28;20088;-77
2023/01/09 08:38:23;;;;;;;16.13;11.50;;;;;;;9.06;100.00;99358.59;5011900;28;20048;-77
2023/01/09 08:40:48;;;;;;;17.67;11.05;;;;;;;9.13;100.00;99370.06;4993733;28;20503;-77
2023/01/09 08:48:27;;;;;;;17.08;10.88;;;;;;;8.98;100.00;99360.78;5011348;28;20392;-77
2023/01/09 08:50:53;;;;;;;11.77;9.20;;;;;;;8.94;100.00;99341.63;4993688;28;20038;-78
2023/01/09 08:53:20;;;;;;;15.18;9.98;;;;;;;9.03;100.00;99340.28;5011460;28;20223;-77
2023/01/09 08:55:45;;;;;;;13.88;9.20;;;;;;;8.82;100.00;99312.06;4993476;28;20021;-77
2023/01/09 08:58:11;;;;;;;12.57;8.55;;;;;;;8.85;100.00;99362.56;5011381;28;20389;-77
2023/01/09 09:00:37;;;;;;;12.23;8.32;;;;;;;8.58;100.00;99302.22;5009626;28;20036;-77
2023/01/09 09:03:02;;;;;;;14.25;8.32;;;;;;;8.32;100.00;99258.53;5012013;28;20025;-78
2023/01/09 09:05:29;;;;;;;13.80;8.10;;;;;;;8.24;100.00;99238.22;5011266;28;20105;-77
2023/01/09 09:07:55;;;;;;;16.73;8.77;;;;;;;8.22;100.00;99231.44;5014868;28;20407;-78
2023/01/09 09:10:23;;;;;;;13.93;8.57;;;;;;;8.73;100.00;99299.97;5014142;28;20030;-77
2023/01/09 09:12:53;;;;;;;11.02;8.02;;;;;;;8.79;100.00;99293.72;5012691;28;20365;-77
2023/01/09 09:15:23;;;;;;;12.68;7.90;;;;;;;8.88;100.00;99292.38;5011519;28;20492;-77
2023/01/09 09:18:03;;;;;;;11.25;7.90;;;;;;;9.05;100.00;99313.22;5015899;28;20026;-77
2023/01/09 09:20:31;;;;;;;13.38;7.30;;;;;;;9.06;100.00;99341.69;5013782;28;20038;-77
2023/01/09 09:22:57;;;;;;;11.43;7.32;;;;;;;8.21;100.00;99205.66;5015233;28;20050;-77
2023/01/09 09:25:23;;;;;;;11.15;6.72;;;;;;;8.96;100.00;99293.94;5015097;28;20018;-77
2023/01/09 09:27:49;;;;;;;13.68;6.60;;;;;;;8.69;100.00;99263.94;4997188;28;20025;-77
2023/01/09 09:30:17;;;;;;;11.20;6.20;;;;;;;8.75;100.00;99303.28;5014764;28;20235;-77
2023/01/09 09:32:43;;;;;;;9.65;6.40;;;;;;;8.88;100.00;99287.00;5015196;28;20056;-77
2023/01/09 09:35:09;;;;;;;8.75;6.00;;;;;;;8.53;100.00;99214.41;5014195;28;20049;-77
2023/01/09 09:37:34;;;;;;;10.27;6.35;;;;;;;8.38;100.00;99179.16;5014521;28;20053;-77
2023/01/09 09:40:00;;;;;;;9.02;6.25;;;;;;;8.57;100.00;99209.41;5014490;28;20029;-77
2023/01/09 09:45:49;;;;;;;9.50;5.47;;;;;;;9.52;100.00;99316.09;5014417;28;20455;-77
2023/01/09 09:48:43;;;;;;;11.25;5.65;;;;;;;8.56;100.00;99199.75;5014173;28;20504;-77
2023/01/09 09:51:59;;;;;;;10.77;5.75;;;;;;;9.47;100.00;99310.59;5014446;28;20022;-77
2023/01/09 09:54:32;;;;;;;8.90;5.53;;;;;;;9.47;100.00;99310.59;4970598;28;20042;-77
2023/01/09 09:57:01;;;;;;;6.35;5.18;;;;;;;9.08;100.00;99251.06;5015706;28;20053;-77
2023/01/09 09:59:33;;;;;;;8.70;5.00;;;;;;;9.06;100.00;99227.13;5014804;28;20030;-77
2023/01/09 10:02:04;;;;;;;8.50;5.30;;;;;;;9.04;100.00;99226.56;5014266;28;20026;-77
2023/01/09 10:04:33;;;;;;;10.02;5.20;;;;;;;9.00;100.00;99267.47;5014451;28;20026;-77
2023/01/09 10:07:08;;;;;;;9.55;5.22;;;;;;;9.48;100.00;99302.31;4997396;28;20112;-77
2023/01/09 10:09:42;;;;;;;9.48;5.10;;;;;;;9.65;99.68;99310.53;5014373;28;20029;-77
2023/01/09 10:12:29;;;;;;;7.72;4.68;;;;;;;9.44;99.68;99306.53;5014154;28;20109;-77
2023/01/09 10:14:57;;;;;;;7.32;5.05;;;;;;;8.87;100.00;99218.34;5013854;28;20105;-76
2023/01/09 10:17:51;;;;;;;7.75;5.20;;;;;;;9.73;100.00;99304.81;5013907;28;20045;-77
2023/01/09 10:20:32;;;;;;;7.30;4.90;;;;;;;9.73;100.00;99312.06;5013780;28;20108;-77
2023/01/09 10:23:06;;;;;;;10.27;5.53;;;;;;;9.67;100.00;99307.59;5013575;28;20052;-77
2023/01/09 10:25:43;;;;;;;11.75;5.15;;;;;;;9.62;99.68;99308.31;5013747;28;20113;-77
2023/01/09 10:28:19;;;;;;;8.77;5.03;;;;;;;9.47;99.79;99267.63;5013550;28;20065;-77
2023/01/09 10:30:53;;;;;;;10.13;5.25;;;;;;;9.88;99.26;99304.41;5013062;28;20481;-77
2023/01/09 10:33:53;;;;;;;9.93;5.30;;;;;;;9.62;99.79;99306.44;5013671;28;20037;-77
2023/01/09 10:36:43;;;;;;;10.35;5.18;;;;;;;9.89;99.59;99306.84;4995892;28;20034;-77
2023/01/09 10:39:20;;;;;;;9.15;4.90;;;;;;;9.38;99.66;99257.22;5016506;28;20487;-77
2023/01/09 10:41:50;;;;;;;9.07;5.47;;;;;;;8.98;100.00;99197.13;5014874;28;20026;-77
2023/01/09 10:44:24;;;;;;;7.15;4.47;;;;;;;8.85;100.00;99180.19;5013379;28;20144;-77
2023/01/09 10:46:54;;;;;;;9.17;4.47;;;;;;;8.80;99.18;99182.72;5013552;28;20104;-77
2023/01/09 10:49:22;;;;;;;8.07;4.35;;;;;;;8.81;99.87;99205.00;5013424;28;20278;-77
2023/01/09 10:52:04;;;;;;;6.50;4.40;;;;;;;8.88;99.70;99158.25;5013162;28;20038;-77
2023/01/09 10:54:30;;;;;;;9.15;4.20;;;;;;;10.01;98.75;99304.19;5013161;28;20119;-77
2023/01/09 10:57:11;;;;;;;10.13;4.60;;;;;;;9.94;98.79;99297.28;5013168;28;20109;-77
2023/01/09 10:59:39;;;;;;;8.75;4.25;;;;;;;8.85;98.54;99158.72;5013012;28;20080;-76
2023/01/09 11:02:10;;;;;;;7.78;4.13;;;;;;;10.04;98.21;99290.28;5012994;28;20033;-77
2023/01/09 11:04:38;;;;;;;8.13;4.63;;;;;;;9.32;98.40;99184.84;5012897;28;20026;-77
2023/01/09 11:07:20;;;;;;;5.88;3.85;;;;;;;10.09;97.77;99303.81;5013640;28;20032;-77
2023/01/09 11:09:58;;;;;;;7.70;4.00;;;;;;;9.37;97.77;99198.38;5013191;28;20018;-77
2023/01/09 11:12:26;;;;;;;8.10;3.92;;;;;;;9.63;98.12;99222.16;5013373;28;20053;-77
2023/01/09 11:14:52;;;;;;;6.80;3.80;;;;;;;9.74;97.75;99284.19;4995516;28;20484;-77
2023/01/09 11:17:25;;;;;;;6.90;3.60;;;;;;;9.01;98.44;99194.81;5013417;28;20061;-77
2023/01/09 11:20:15;;;;;;;8.65;3.80;;;;;;;9.72;97.13;99229.88;5013161;28;20049;-77
2023/01/09 11:22:48;;;;;;;6.88;3.50;;;;;;;9.45;96.56;99162.34;5002874;28;20532;-77
2023/01/09 11:25:16;;;;;;;6.68;3.83;;;;;;;9.20;97.71;99168.72;5013079;28;20112;-77
2023/01/09 11:27:41;;;;;;;5.82;3.05;;;;;;;9.37;96.67;99182.28;5012793;28;20030;-77
2023/01/09 11:30:19;;;;;;;4.97;3.08;;;;;;;9.35;97.04;99195.13;5012564;28;20480;-77
2023/01/09 11:32:46;;;;;;;5.45;3.00;;;;;;;10.01;97.10;99271.13;5012375;28;20037;-77
2023/01/09 11:35:23;;;;;;;5.00;3.10;;;;;;;10.35;96.35;99288.31;5012313;28;20048;-77
2023/01/09 11:37:59;;;;;;;4.75;3.40;;;;;;;10.34;96.09;99290.19;5012470;28;20029;-77
2023/01/09 11:40:25;;;;;;;7.22;3.20;;;;;;;9.39;96.71;99172.97;5011766;28;20026;-77
2023/01/09 11:43:10;;;;;;;5.93;3.30;;;;;;;10.25;96.54;99283.50;5011801;28;20026;-77
2023/01/09 11:45:43;;;;;;;7.82;3.33;;;;;;;9.53;95.50;99146.69;5011956;28;20109;-77
2023/01/09 11:48:18;;;;;;;5.85;3.45;;;;;;;9.70;96.17;99176.38;5012332;28;20030;-77
2023/01/09 11:50:54;;;;;;;5.70;2.90;;;;;;;10.28;95.80;99276.88;5011907;28;20029;-77
2023/01/09 11:53:19;;;;;;;6.05;3.17;;;;;;;9.96;96.10;99242.25;4994263;28;20037;-77
2023/01/09 11:55:51;;;;;;;6.53;2.83;;;;;;;9.46;96.20;99164.78;5011926;28;20472;-77
2023/01/09 11:58:20;;;;;;;6.53;3.13;;;;;;;10.31;95.48;99277.22;4994185;28;20022;-77
2023/01/09 12:01:10;;;;;;;8.60;3.10;;;;;;;10.18;96.12;99273.94;5012218;28;20077;-77
2023/01/09 12:04:16;;;;;;;7.32;2.80;;;;;;;10.01;95.46;99237.00;5012483;28;20026;-76
2023/01/09 12:07:12;;;;;;;5.78;3.30;;;;;;;9.84;95.09;99190.41;5013233;28;20022;-77
2023/01/09 12:09:55;;;;;;;5.60;2.83;;;;;;;9.92;94.34;99221.47;5012210;28;20025;-77
2023/01/09 12:12:29;;;;;;;4.32;2.38;;;;;;;10.12;94.87;99281.84;4994744;28;20029;-76
2023/01/09 12:15:19;;;;;;;3.35;2.80;;;;;;;10.21;95.88;99285.03;5012005;28;20133;-77
2023/01/09 12:18:22;;;;;;;5.30;2.80;;;;;;;10.26;95.42;99295.09;5011887;28;20148;-77
2023/01/09 12:21:21;;;;;;;7.30;3.08;;;;;;;10.33;94.91;99288.56;5011607;28;20044;-77
2023/01/09 12:24:14;;;;;;;3.85;2.90;;;;;;;10.30;95.18;99290.91;5011658;28;20085;-77
2023/01/09 12:27:05;;;;;;;5.70;3.25;;;;;;;10.30;95.09;99297.09;5011288;28;20040;-77
2023/01/09 12:29:55;;;;;;;5.13;3.58;;;;;;;10.31;95.33;99298.72;4993931;28;20540;-77
2023/01/09 12:32:45;;;;;;;6.25;3.40;;;;;;;9.56;95.25;99196.44;5011605;28;20038;-77
2023/01/09 12:35:50;;;;;;;5.45;4.07;;;;;;;10.06;96.02;99263.97;5011613;28;20026;-77
2023/01/09 12:38:26;;;;;;;7.13;4.03;;;;;;;10.18;96.32;99307.00;4979187;28;20060;-77
2023/01/09 12:41:10;;;;;;;5.20;4.00;;;;;;;10.17;96.56;99310.75;5011486;28;20108;-77
2023/01/09 12:44:00;;;;;;;7.78;4.57;;;;;;;10.16;97.19;99301.03;5011627;28;20077;-77
2023/01/09 12:46:34;;;;;;;7.30;4.50;;;;;;;9.82;96.68;99244.34;5011541;28;20040;-77
2023/01/09 12:49:28;;;;;;;6.00;4.18;;;;;;;9.87;97.45;99300.91;5011341;28;20021;-78
2023/01/09 12:52:02;;;;;;;5.95;3.58;;;;;;;9.97;97.97;99303.03;5011543;28;20026;-78
2023/01/09 12:54:41;;;;;;;7.32;4.38;;;;;;;9.41;98.07;99216.50;5015255;28;20167;-77
2023/01/09 12:57:20;;;;;;;5.03;3.70;;;;;;;10.01;97.85;99311.44;5015145;28;20061;-78
2023/01/09 12:59:52;;;;;;;7.43;3.97;;;;;;;9.50;97.77;99218.84;4997621;28;20391;-78
2023/01/09 13:02:31;;;;;;;7.28;4.10;;;;;;;9.97;98.16;99303.03;5015225;28;20034;-78
2023/01/09 13:05:01;;;;;;;7.00;4.50;;;;;;;9.94;98.54;99308.84;5015321;28;20034;-78
2023/01/09 13:07:32;;;;;;;8.18;4.00;;;;;;;9.33;97.96;99195.34;5015999;28;20033;-77
2023/01/09 13:10:19;;;;;;;7.28;4.20;;;;;;;10.00;98.40;99301.72;5015125;28;20160;-78
2023/01/09 13:12:47;;;;;;;7.28;3.88;;;;;;;9.93;98.57;99303.69;5015745;28;20104;-78
2023/01/09 13:15:20;;;;;;;4.40;3.60;;;;;;;9.68;98.36;99275.16;4997778;28;20492;-78
2023/01/09 13:17:50;;;;;;;8.45;3.90;;;;;;;9.85;98.63;99308.34;5015360;28;20037;-78
2023/01/09 13:20:20;;;;;;;5.20;4.07;;;;;;;9.87;98.95;99321.56;5015525;28;20037;-78
2023/01/09 13:22:49;;;;;;;7.05;4.72;;;;;;;9.60;99.76;99305.03;5014996;28;20095;-78
2023/01/09 13:25:30;;;;;;;9.55;4.90;;;;;;;9.75;99.90;99318.03;5015065;28;20045;-78
2023/01/09 13:28:01;;;;;;;11.18;5.25;;;;;;;9.16;99.46;99226.59;5014948;28;20099;-78
2023/01/09 13:31:00;;;;;;;12.30;6.68;;;;;;;9.57;99.59;99292.06;5015067;28;20029;-78
2023/01/09 13:33:29;;;;;;;8.68;6.47;;;;;;;9.21;99.49;99250.88;4987008;28;20033;-77
2023/01/09 13:35:57;;;;;;;13.07;7.20;;;;;;;9.08;99.32;99229.59;4996990;28;20053;-78
2023/01/09 13:38:26;;;;;;;15.30;7.40;;;;;;;9.63;99.44;99339.47;4997119;28;20476;-78
2023/01/09 13:44:16;;;;;;;14.93;7.43;;;;;;;9.58;99.64;99332.13;5014556;28;20033;-77
2023/01/09 13:46:44;;;;;;;12.63;7.43;;;;;;;9.47;100.00;99329.38;4986380;28;20064;-78
2023/01/09 13:49:40;;;;;;;11.25;7.75;;;;;;;9.30;100.00;99323.84;5014372;28;20030;-77
2023/01/09 13:52:37;;;;;;;18.52;8.68;;;;;;;9.38;99.73;99329.72;5014518;28;20021;-78
2023/01/09 13:55:03;;;;;;;16.40;8.15;;;;;;;9.32;99.87;99335.19;5014535;28;20022;-78
2023/01/09 13:57:35;;;;;;;17.15;7.85;;;;;;;9.25;100.00;99335.25;5015430;28;20032;-78
2023/01/09 14:00:15;;;;;;;15.13;8.02;;;;;;;9.09;100.00;99341.25;5020638;28;20049;-78
2023/01/09 14:02:43;;;;;;;18.08;7.95;;;;;;;9.14;100.00;99349.44;4998741;28;20030;-78
2023/01/09 14:05:15;;;;;;;18.38;8.23;;;;;;;9.14;100.00;99355.63;5013481;28;20104;-78
2023/01/09 14:07:41;;;;;;;17.63;7.70;;;;;;;9.17;100.00;99359.72;5015852;28;20026;-78
2023/01/09 14:10:42;;;;;;;19.05;7.90;;;;;;;9.04;100.00;99344.63;4997376;28;20037;-78
2023/01/09 14:13:14;;;;;;;15.75;7.53;;;;;;;8.51;100.00;99275.50;5000645;28;20117;-78
2023/01/09 14:15:43;;;;;;;12.55;6.65;;;;;;;8.94;100.00;99328.22;4997065;28;20034;-78